sensor_id;sensor_type;location;lat;lon;timestamp;pressure;altitude;pressure_sealevel;temperature;humidity
75699;BME280;64313;51.018;13.742;2023-06-01T00:00:41;99998.63;;;17.55;52.76
75699;BME280;64313;51.018;13.742;2023-06-01T00:03:07;99998.63;;;17.55;53.04
75699;BME280;64313;51.018;13.742;2023-06-01T00:05:33;99996.41;;;17.52;53.01
75699;BME280;64313;51.018;13.742;2023-06-01T00:07:58;99994.31;;;17.42;53.13
75699;BME280;64313;51.018;13.742;2023-06-01T00:10:23;99996.91;;;17.37;53.23
75699;BME280;64313;51.018;13.742;2023-06-01T00:12:49;99988.69;;;17.32;52.79
75699;BME280;64313;51.018;13.742;2023-06-01T00:15:15;99985.88;;;17.27;52.81
75699;BME280;64313;51.018;13.742;2023-06-01T00:17:40;99981.41;;;17.21;52.97
75699;BME280;64313;51.018;13.742;2023-06-01T00:20:06;99991.06;;;17.17;53.44
75699;BME280;64313;51.018;13.742;2023-06-01T00:22:33;99990.13;;;17.11;53.49
75699;BME280;64313;51.018;13.742;2023-06-01T00:25:07;99987.53;;;17.04;53.92
75699;BME280;64313;51.018;13.742;2023-06-01T00:27:32;99991.03;;;16.93;54.13
75699;BME280;64313;51.018;13.742;2023-06-01T00:29:58;99991.75;;;16.89;54.05
75699;BME280;64313;51.018;13.742;2023-06-01T00:32:23;99986.47;;;16.82;54.49
75699;BME280;64313;51.018;13.742;2023-06-01T00:34:48;99983.47;;;16.72;54.64
75699;BME280;64313;51.018;13.742;2023-06-01T00:37:14;99984.41;;;16.65;55.01
75699;BME280;64313;51.018;13.742;2023-06-01T00:39:39;99980.41;;;16.68;54.25
75699;BME280;64313;51.018;13.742;2023-06-01T00:42:05;99978.56;;;16.69;54.75
75699;BME280;64313;51.018;13.742;2023-06-01T00:44:31;99981.47;;;16.67;55.11
75699;BME280;64313;51.018;13.742;2023-06-01T00:46:56;99983.59;;;16.65;54.70
75699;BME280;64313;51.018;13.742;2023-06-01T00:49:25;99981.56;;;16.60;55.18
75699;BME280;64313;51.018;13.742;2023-06-01T00:51:51;99985.56;;;16.58;54.63
75699;BME280;64313;51.018;13.742;2023-06-01T00:54:16;99990.13;;;16.57;54.63
75699;BME280;64313;51.018;13.742;2023-06-01T00:56:42;99984.16;;;16.55;54.77
75699;BME280;64313;51.018;13.742;2023-06-01T00:59:08;99988.38;;;16.51;55.19
75699;BME280;64313;51.018;13.742;2023-06-01T01:01:33;99982.38;;;16.49;55.29
75699;BME280;64313;51.018;13.742;2023-06-01T01:03:59;99993.06;;;16.44;55.61
75699;BME280;64313;51.018;13.742;2023-06-01T01:09:40;99991.97;;;16.33;56.20
75699;BME280;64313;51.018;13.742;2023-06-01T01:12:12;99987.28;;;16.29;56.16
75699;BME280;64313;51.018;13.742;2023-06-01T01:17:28;99985.25;;;16.24;56.55
75699;BME280;64313;51.018;13.742;2023-06-01T01:20:06;99985.34;;;16.17;56.69
75699;BME280;64313;51.018;13.742;2023-06-01T01:22:47;99990.38;;;16.14;56.53
75699;BME280;64313;51.018;13.742;2023-06-01T01:25:50;99991.44;;;16.13;56.18
75699;BME280;64313;51.018;13.742;2023-06-01T01:28:35;99991.88;;;16.10;56.32
75699;BME280;64313;51.018;13.742;2023-06-01T01:31:04;99986.94;;;16.07;56.50
75699;BME280;64313;51.018;13.742;2023-06-01T01:33:32;99988.22;;;16.04;56.61
75699;BME280;64313;51.018;13.742;2023-06-01T01:35:59;99986.81;;;16.01;57.03
75699;BME280;64313;51.018;13.742;2023-06-01T01:38:24;99988.09;;;15.99;56.50
75699;BME280;64313;51.018;13.742;2023-06-01T01:40:50;99993.69;;;15.97;56.82
75699;BME280;64313;51.018;13.742;2023-06-01T01:43:18;99999.78;;;15.93;57.29
75699;BME280;64313;51.018;13.742;2023-06-01T01:45:46;100000.53;;;15.82;57.92
75699;BME280;64313;51.018;13.742;2023-06-01T01:48:28;99996.06;;;15.75;56.84
75699;BME280;64313;51.018;13.742;2023-06-01T01:51:01;99986.56;;;15.73;57.73
75699;BME280;64313;51.018;13.742;2023-06-01T01:53:29;99981.81;;;15.68;57.80
75699;BME280;64313;51.018;13.742;2023-06-01T01:55:56;99973.81;;;15.62;58.09
75699;BME280;64313;51.018;13.742;2023-06-01T01:58:23;99975.09;;;15.59;58.23
75699;BME280;64313;51.018;13.742;2023-06-01T02:00:49;99966.84;;;15.54;58.20
75699;BME280;64313;51.018;13.742;2023-06-01T02:03:18;99975.59;;;15.49;58.31
75699;BME280;64313;51.018;13.742;2023-06-01T02:05:44;99963.66;;;15.45;58.25
75699;BME280;64313;51.018;13.742;2023-06-01T02:08:10;99970.06;;;15.44;58.68
75699;BME280;64313;51.018;13.742;2023-06-01T02:10:36;99962.69;;;15.40;58.08
75699;BME280;64313;51.018;13.742;2023-06-01T02:13:02;99963.13;;;15.36;58.13
75699;BME280;64313;51.018;13.742;2023-06-01T02:15:28;99966.25;;;15.33;58.15
75699;BME280;64313;51.018;13.742;2023-06-01T02:17:53;99966.72;;;15.30;58.11
75699;BME280;64313;51.018;13.742;2023-06-01T02:20:19;99965.50;;;15.26;58.18
75699;BME280;64313;51.018;13.742;2023-06-01T02:22:45;99961.53;;;15.10;58.69
75699;BME280;64313;51.018;13.742;2023-06-01T02:25:10;99968.41;;;15.06;59.30
75699;BME280;64313;51.018;13.742;2023-06-01T02:27:36;99963.09;;;15.00;59.57
75699;BME280;64313;51.018;13.742;2023-06-01T02:30:01;99964.94;;;14.99;59.00
75699;BME280;64313;51.018;13.742;2023-06-01T02:32:27;99967.22;;;15.02;58.32
75699;BME280;64313;51.018;13.742;2023-06-01T02:34:54;99963.38;;;14.91;59.12
75699;BME280;64313;51.018;13.742;2023-06-01T02:37:19;99958.88;;;14.85;59.28
75699;BME280;64313;51.018;13.742;2023-06-01T02:39:45;99957.75;;;14.75;59.89
75699;BME280;64313;51.018;13.742;2023-06-01T02:42:12;99954.66;;;14.71;59.92
75699;BME280;64313;51.018;13.742;2023-06-01T02:44:37;99954.66;;;14.71;59.91
75699;BME280;64313;51.018;13.742;2023-06-01T02:47:03;99949.50;;;14.69;59.53
75699;BME280;64313;51.018;13.742;2023-06-01T02:49:28;99951.81;;;14.66;59.82
75699;BME280;64313;51.018;13.742;2023-06-01T02:51:54;99946.50;;;14.59;60.01
75699;BME280;64313;51.018;13.742;2023-06-01T02:54:23;99940.94;;;14.54;60.34
75699;BME280;64313;51.018;13.742;2023-06-01T02:56:49;99938.03;;;14.56;60.16
75699;BME280;64313;51.018;13.742;2023-06-01T02:59:20;99945.47;;;14.54;60.11
75699;BME280;64313;51.018;13.742;2023-06-01T03:01:51;99931.84;;;14.48;60.79
75699;BME280;64313;51.018;13.742;2023-06-01T03:04:16;99930.25;;;14.41;60.78
75699;BME280;64313;51.018;13.742;2023-06-01T03:06:42;99931.31;;;14.40;60.34
75699;BME280;64313;51.018;13.742;2023-06-01T03:09:32;99929.63;;;14.39;60.51
75699;BME280;64313;51.018;13.742;2023-06-01T03:12:06;99931.09;;;14.41;60.15
75699;BME280;64313;51.018;13.742;2023-06-01T03:14:33;99938.47;;;14.46;59.49
75699;BME280;64313;51.018;13.742;2023-06-01T03:16:58;99942.38;;;14.50;59.31
75699;BME280;64313;51.018;13.742;2023-06-01T03:19:24;99942.59;;;14.48;59.23
75699;BME280;64313;51.018;13.742;2023-06-01T03:21:52;99951.09;;;14.45;60.10
75699;BME280;64313;51.018;13.742;2023-06-01T03:24:20;99961.41;;;14.23;61.20
75699;BME280;64313;51.018;13.742;2023-06-01T03:26:46;99958.50;;;14.25;60.50
75699;BME280;64313;51.018;13.742;2023-06-01T03:29:11;99959.97;;;14.21;61.40
75699;BME280;64313;51.018;13.742;2023-06-01T03:31:37;99962.31;;;14.11;61.86
75699;BME280;64313;51.018;13.742;2023-06-01T03:34:03;99963.97;;;14.12;61.78
75699;BME280;64313;51.018;13.742;2023-06-01T03:36:28;99948.22;;;14.15;60.29
75699;BME280;64313;51.018;13.742;2023-06-01T03:38:54;99959.38;;;14.19;61.05
75699;BME280;64313;51.018;13.742;2023-06-01T03:41:21;99959.59;;;14.17;60.77
75699;BME280;64313;51.018;13.742;2023-06-01T03:43:47;99967.47;;;14.12;60.90
75699;BME280;64313;51.018;13.742;2023-06-01T03:46:12;99964.78;;;14.12;61.75
75699;BME280;64313;51.018;13.742;2023-06-01T03:48:38;99959.03;;;14.09;62.01
75699;BME280;64313;51.018;13.742;2023-06-01T03:51:03;99961.09;;;14.06;61.66
75699;BME280;64313;51.018;13.742;2023-06-01T03:53:29;99958.41;;;14.06;61.89
75699;BME280;64313;51.018;13.742;2023-06-01T03:55:56;99958.41;;;14.06;61.59
75699;BME280;64313;51.018;13.742;2023-06-01T03:58:29;99960.50;;;14.04;61.73
75699;BME280;64313;51.018;13.742;2023-06-01T04:00:55;99959.88;;;14.02;62.40
75699;BME280;64313;51.018;13.742;2023-06-01T04:03:22;99963.81;;;14.00;62.38
75699;BME280;64313;51.018;13.742;2023-06-01T04:05:49;99964.44;;;14.02;62.40
75699;BME280;64313;51.018;13.742;2023-06-01T04:08:23;99964.19;;;14.03;62.10
75699;BME280;64313;51.018;13.742;2023-06-01T04:10:49;99959.44;;;14.05;61.98
75699;BME280;64313;51.018;13.742;2023-06-01T04:13:14;99959.25;;;14.07;62.12
75699;BME280;64313;51.018;13.742;2023-06-01T04:15:40;99962.38;;;14.04;61.95
75699;BME280;64313;51.018;13.742;2023-06-01T04:18:06;99958.41;;;14.06;61.83
75699;BME280;64313;51.018;13.742;2023-06-01T04:20:45;99959.84;;;14.09;61.46
75699;BME280;64313;51.018;13.742;2023-06-01T04:23:10;99957.16;;;14.09;62.17
75699;BME280;64313;51.018;13.742;2023-06-01T04:25:36;99971.88;;;14.06;62.08
75699;BME280;64313;51.018;13.742;2023-06-01T04:28:01;99965.25;;;14.02;62.54
75699;BME280;64313;51.018;13.742;2023-06-01T04:30:30;99975.19;;;14.02;62.79
75699;BME280;64313;51.018;13.742;2023-06-01T04:32:55;99971.06;;;13.99;62.57
75699;BME280;64313;51.018;13.742;2023-06-01T04:35:21;99968.56;;;14.04;63.25
75699;BME280;64313;51.018;13.742;2023-06-01T04:37:46;99968.38;;;13.99;62.99
75699;BME280;64313;51.018;13.742;2023-06-01T04:40:12;99968.38;;;13.99;63.29
75699;BME280;64313;51.018;13.742;2023-06-01T04:42:40;99967.13;;;14.02;62.33
75699;BME280;64313;51.018;13.742;2023-06-01T04:45:08;99975.56;;;14.05;62.25
75699;BME280;64313;51.018;13.742;2023-06-01T04:47:35;99970.97;;;14.13;61.42
75699;BME280;64313;51.018;13.742;2023-06-01T04:50:14;99974.09;;;14.16;62.17
75699;BME280;64313;51.018;13.742;2023-06-01T04:52:43;99967.63;;;14.24;62.34
75699;BME280;64313;51.018;13.742;2023-06-01T04:55:10;99970.47;;;14.29;62.67
75699;BME280;64313;51.018;13.742;2023-06-01T04:57:38;99967.97;;;14.34;62.59
75699;BME280;64313;51.018;13.742;2023-06-01T05:00:10;99963.38;;;14.41;63.11
75699;BME280;64313;51.018;13.742;2023-06-01T05:02:38;99958.56;;;14.43;62.77
75699;BME280;64313;51.018;13.742;2023-06-01T05:05:05;99957.72;;;14.49;62.81
75699;BME280;64313;51.018;13.742;2023-06-01T05:07:31;99948.56;;;14.57;62.65
75699;BME280;64313;51.018;13.742;2023-06-01T05:09:56;99945.41;;;14.67;62.63
75699;BME280;64313;51.018;13.742;2023-06-01T05:12:23;99948.41;;;14.77;63.02
75699;BME280;64313;51.018;13.742;2023-06-01T05:14:48;99947.06;;;14.86;61.96
75699;BME280;64313;51.018;13.742;2023-06-01T05:17:14;99946.34;;;14.98;61.46
75699;BME280;64313;51.018;13.742;2023-06-01T05:19:39;99938.56;;;15.08;61.63
75699;BME280;64313;51.018;13.742;2023-06-01T05:22:05;99943.22;;;15.19;61.48
75699;BME280;64313;51.018;13.742;2023-06-01T05:24:30;99945.38;;;15.29;61.38
75699;BME280;64313;51.018;13.742;2023-06-01T05:26:55;99949.78;;;15.42;60.65
75699;BME280;64313;51.018;13.742;2023-06-01T05:29:21;99945.31;;;15.54;61.29
75699;BME280;64313;51.018;13.742;2023-06-01T05:31:46;99953.47;;;15.66;60.90
75699;BME280;64313;51.018;13.742;2023-06-01T05:34:12;99950.47;;;15.74;59.93
75699;BME280;64313;51.018;13.742;2023-06-01T05:36:38;99946.63;;;15.82;60.64
75699;BME280;64313;51.018;13.742;2023-06-01T05:39:05;99953.13;;;15.92;60.90
75699;BME280;64313;51.018;13.742;2023-06-01T05:41:31;99948.59;;;16.05;59.04
75699;BME280;64313;51.018;13.742;2023-06-01T05:43:57;99950.53;;;16.16;58.52
75699;BME280;64313;51.018;13.742;2023-06-01T05:46:23;99951.59;;;16.27;57.16
75699;BME280;64313;51.018;13.742;2023-06-01T05:48:50;99952.22;;;16.40;57.55
75699;BME280;64313;51.018;13.742;2023-06-01T05:51:16;99953.78;;;16.48;57.21
75699;BME280;64313;51.018;13.742;2023-06-01T05:53:42;99948.84;;;16.57;56.82
75699;BME280;64313;51.018;13.742;2023-06-01T05:56:08;99952.84;;;16.66;56.74
75699;BME280;64313;51.018;13.742;2023-06-01T05:58:33;99952.50;;;16.74;56.95
75699;BME280;64313;51.018;13.742;2023-06-01T06:00:58;99950.41;;;16.76;57.25
75699;BME280;64313;51.018;13.742;2023-06-01T06:03:24;99954.06;;;16.82;56.31
75699;BME280;64313;51.018;13.742;2023-06-01T06:05:49;99941.88;;;16.91;56.62
75699;BME280;64313;51.018;13.742;2023-06-01T06:08:15;99943.72;;;17.02;56.59
75699;BME280;64313;51.018;13.742;2023-06-01T06:10:40;99946.31;;;17.09;56.02
75699;BME280;64313;51.018;13.742;2023-06-01T06:13:06;99940.06;;;17.20;55.34
75699;BME280;64313;51.018;13.742;2023-06-01T06:15:32;99945.44;;;17.32;54.61
75699;BME280;64313;51.018;13.742;2023-06-01T06:17:57;99936.25;;;17.45;54.36
75699;BME280;64313;51.018;13.742;2023-06-01T06:20:22;99938.34;;;17.55;54.64
75699;BME280;64313;51.018;13.742;2023-06-01T06:22:51;99936.56;;;17.60;53.52
75699;BME280;64313;51.018;13.742;2023-06-01T06:25:17;99937.84;;;17.69;53.69
75699;BME280;64313;51.018;13.742;2023-06-01T06:27:42;99930.41;;;17.77;52.77
75699;BME280;64313;51.018;13.742;2023-06-01T06:30:08;99935.94;;;17.82;53.20
75699;BME280;64313;51.018;13.742;2023-06-01T06:32:34;99933.66;;;17.90;53.17
75699;BME280;64313;51.018;13.742;2023-06-01T06:35:00;99931.78;;;17.91;53.41
75699;BME280;64313;51.018;13.742;2023-06-01T06:37:26;99927.84;;;17.99;53.02
75699;BME280;64313;51.018;13.742;2023-06-01T06:39:51;99925.00;;;18.05;53.00
75699;BME280;64313;51.018;13.742;2023-06-01T06:42:16;99927.47;;;18.07;52.96
75699;BME280;64313;51.018;13.742;2023-06-01T06:44:41;99933.78;;;18.12;52.92
75699;BME280;64313;51.018;13.742;2023-06-01T06:47:07;99935.78;;;18.17;53.52
75699;BME280;64313;51.018;13.742;2023-06-01T06:49:32;99936.09;;;18.21;53.15
75699;BME280;64313;51.018;13.742;2023-06-01T06:51:58;99937.56;;;18.28;53.22
75699;BME280;64313;51.018;13.742;2023-06-01T06:54:23;99943.31;;;18.32;52.93
75699;BME280;64313;51.018;13.742;2023-06-01T06:56:48;99928.00;;;18.37;52.89
75699;BME280;64313;51.018;13.742;2023-06-01T06:59:14;99931.38;;;18.45;53.06
75699;BME280;64313;51.018;13.742;2023-06-01T07:01:39;99924.38;;;18.49;53.48
75699;BME280;64313;51.018;13.742;2023-06-01T07:04:06;99931.78;;;18.53;52.58
75699;BME280;64313;51.018;13.742;2023-06-01T07:06:32;99921.75;;;18.54;52.98
75699;BME280;64313;51.018;13.742;2023-06-01T07:09:00;99928.06;;;18.59;52.71
75699;BME280;64313;51.018;13.742;2023-06-01T07:11:26;99921.91;;;18.64;52.52
75699;BME280;64313;51.018;13.742;2023-06-01T07:13:53;99921.91;;;18.64;53.22
75699;BME280;64313;51.018;13.742;2023-06-01T07:16:18;99912.81;;;18.70;52.82
75699;BME280;64313;51.018;13.742;2023-06-01T07:18:43;99918.22;;;18.70;52.21
75699;BME280;64313;51.018;13.742;2023-06-01T07:21:09;99925.78;;;18.68;52.22
75699;BME280;64313;51.018;13.742;2023-06-01T07:23:34;99914.94;;;18.68;53.14
75699;BME280;64313;51.018;13.742;2023-06-01T07:25:59;99918.72;;;18.67;53.10
75699;BME280;64313;51.018;13.742;2023-06-01T07:28:25;99914.28;;;18.61;52.47
75699;BME280;64313;51.018;13.742;2023-06-01T07:30:52;99913.22;;;18.62;52.92
75699;BME280;64313;51.018;13.742;2023-06-01T07:33:17;99915.44;;;18.65;52.88
75699;BME280;64313;51.018;13.742;2023-06-01T07:35:43;99905.28;;;18.72;53.38
75699;BME280;64313;51.018;13.742;2023-06-01T07:38:08;99909.72;;;18.78;53.58
75699;BME280;64313;51.018;13.742;2023-06-01T07:40:34;99899.53;;;18.86;53.12
75699;BME280;64313;51.018;13.742;2023-06-01T07:42:59;99896.88;;;18.91;53.44
75699;BME280;64313;51.018;13.742;2023-06-01T07:45:25;99900.72;;;18.95;53.14
75699;BME280;64313;51.018;13.742;2023-06-01T07:47:50;99901.06;;;18.98;53.14
75699;BME280;64313;51.018;13.742;2023-06-01T07:50:16;99900.31;;;19.03;52.92
75699;BME280;64313;51.018;13.742;2023-06-01T07:52:42;99897.41;;;19.10;52.77
75699;BME280;64313;51.018;13.742;2023-06-01T07:55:08;99898.03;;;19.17;52.32
75699;BME280;64313;51.018;13.742;2023-06-01T07:57:36;99894.34;;;19.23;52.02
75699;BME280;64313;51.018;13.742;2023-06-01T08:00:01;99896.34;;;19.33;52.54
75699;BME280;64313;51.018;13.742;2023-06-01T08:02:35;99891.06;;;19.43;52.04
75699;BME280;64313;51.018;13.742;2023-06-01T08:05:01;99896.84;;;19.52;52.55
75699;BME280;64313;51.018;13.742;2023-06-01T08:07:27;99887.94;;;19.56;51.76
75699;BME280;64313;51.018;13.742;2023-06-01T08:09:54;99891.84;;;19.65;51.64
75699;BME280;64313;51.018;13.742;2023-06-01T08:12:20;99886.88;;;19.79;51.65
75699;BME280;64313;51.018;13.742;2023-06-01T08:14:46;99893.72;;;19.87;50.57
75699;BME280;64313;51.018;13.742;2023-06-01T08:17:11;99887.25;;;19.93;49.68
75699;BME280;64313;51.018;13.742;2023-06-01T08:19:38;99888.97;;;19.99;49.77
75699;BME280;64313;51.018;13.742;2023-06-01T08:22:03;99879.78;;;20.05;49.53
75699;BME280;64313;51.018;13.742;2023-06-01T08:24:30;99885.00;;;20.12;49.79
75699;BME280;64313;51.018;13.742;2023-06-01T08:26:57;99875.56;;;20.20;50.94
75699;BME280;64313;51.018;13.742;2023-06-01T08:29:23;99876.38;;;20.20;49.92
75699;BME280;64313;51.018;13.742;2023-06-01T08:31:48;99875.88;;;20.28;49.50
75699;BME280;64313;51.018;13.742;2023-06-01T08:34:14;99866.72;;;20.35;49.51
75699;BME280;64313;51.018;13.742;2023-06-01T08:36:39;99868.44;;;20.46;50.17
75699;BME280;64313;51.018;13.742;2023-06-01T08:39:24;99867.72;;;20.56;49.78
75699;BME280;64313;51.018;13.742;2023-06-01T08:42:03;99864.53;;;20.64;49.78
75699;BME280;64313;51.018;13.742;2023-06-01T08:44:39;99871.28;;;20.61;48.60
75699;BME280;64313;51.018;13.742;2023-06-01T08:47:06;99863.69;;;20.63;48.91
75699;BME280;64313;51.018;13.742;2023-06-01T08:49:34;99859.38;;;20.67;48.73
75699;BME280;64313;51.018;13.742;2023-06-01T08:52:02;99872.44;;;20.70;48.90
75699;BME280;64313;51.018;13.742;2023-06-01T08:54:28;99855.31;;;20.70;48.78
75699;BME280;64313;51.018;13.742;2023-06-01T08:56:59;99855.09;;;20.77;49.26
75699;BME280;64313;51.018;13.742;2023-06-01T08:59:28;99855.94;;;20.82;49.55
75699;BME280;64313;51.018;13.742;2023-06-01T09:01:54;99855.44;;;20.90;49.14
75699;BME280;64313;51.018;13.742;2023-06-01T09:04:21;99858.69;;;20.92;48.57
75699;BME280;64313;51.018;13.742;2023-06-01T09:06:46;99858.19;;;21.01;47.80
75699;BME280;64313;51.018;13.742;2023-06-01T09:09:13;99859.34;;;21.10;48.91
75699;BME280;64313;51.018;13.742;2023-06-01T09:11:39;99850.38;;;21.09;47.93
75699;BME280;64313;51.018;13.742;2023-06-01T09:14:21;99851.44;;;21.13;48.21
75699;BME280;64313;51.018;13.742;2023-06-01T09:16:47;99839.81;;;21.23;48.48
75699;BME280;64313;51.018;13.742;2023-06-01T09:19:13;99844.19;;;21.29;48.55
75699;BME280;64313;51.018;13.742;2023-06-01T09:21:39;99835.75;;;21.36;48.22
75699;BME280;64313;51.018;13.742;2023-06-01T09:24:18;99839.91;;;21.49;47.31
75699;BME280;64313;51.018;13.742;2023-06-01T09:26:50;99847.28;;;21.58;47.12
75699;BME280;64313;51.018;13.742;2023-06-01T09:29:16;99838.56;;;21.61;46.60
75699;BME280;64313;51.018;13.742;2023-06-01T09:31:43;99834.22;;;21.66;46.67
75699;BME280;64313;51.018;13.742;2023-06-01T09:36:43;99832.88;;;21.83;46.80
75699;BME280;64313;51.018;13.742;2023-06-01T09:39:11;99834.81;;;21.88;47.05
75699;BME280;64313;51.018;13.742;2023-06-01T09:41:47;99840.25;;;21.98;46.89
75699;BME280;64313;51.018;13.742;2023-06-01T09:44:13;99823.66;;;22.15;44.16
75699;BME280;64313;51.018;13.742;2023-06-01T09:46:49;99825.28;;;22.27;41.93
75699;BME280;64313;51.018;13.742;2023-06-01T09:49:24;99822.84;;;22.30;43.00
75699;BME280;64313;51.018;13.742;2023-06-01T09:52:09;99824.72;;;22.40;43.69
75699;BME280;64313;51.018;13.742;2023-06-01T09:54:47;99827.16;;;22.52;43.46
75699;BME280;64313;51.018;13.742;2023-06-01T09:57:13;99817.63;;;22.49;43.80
75699;BME280;64313;51.018;13.742;2023-06-01T09:59:45;99817.38;;;22.56;43.95
75699;BME280;64313;51.018;13.742;2023-06-01T10:02:16;99809.97;;;22.61;43.17
75699;BME280;64313;51.018;13.742;2023-06-01T10:04:47;99812.16;;;22.64;42.96
75699;BME280;64313;51.018;13.742;2023-06-01T10:07:13;99802.88;;;22.71;42.24
75699;BME280;64313;51.018;13.742;2023-06-01T10:09:41;99806.97;;;22.73;42.73
75699;BME280;64313;51.018;13.742;2023-06-01T10:12:08;99811.28;;;22.79;42.29
75699;BME280;64313;51.018;13.742;2023-06-01T10:14:36;99809.34;;;22.85;41.07
75699;BME280;64313;51.018;13.742;2023-06-01T10:17:02;99802.81;;;22.91;41.78
75699;BME280;64313;51.018;13.742;2023-06-01T10:19:29;99801.16;;;22.90;41.59
75699;BME280;64313;51.018;13.742;2023-06-01T10:21:57;99791.63;;;22.98;41.86
75699;BME280;64313;51.018;13.742;2023-06-01T10:24:23;99798.16;;;23.02;42.08
75699;BME280;64313;51.018;13.742;2023-06-01T10:27:02;99794.25;;;23.13;42.16
75699;BME280;64313;51.018;13.742;2023-06-01T10:29:30;99797.81;;;23.19;41.47
75699;BME280;64313;51.018;13.742;2023-06-01T10:31:56;99793.69;;;23.21;41.98
75699;BME280;64313;51.018;13.742;2023-06-01T10:34:41;99790.09;;;23.31;40.32
75699;BME280;64313;51.018;13.742;2023-06-01T10:39:33;99784.81;;;23.45;40.58
75699;BME280;64313;51.018;13.742;2023-06-01T10:47:06;99787.28;;;23.46;41.53
75699;BME280;64313;51.018;13.742;2023-06-01T10:52:28;99781.22;;;23.54;41.49
75699;BME280;64313;51.018;13.742;2023-06-01T10:57:35;99775.41;;;23.66;41.61
75699;BME280;64313;51.018;13.742;2023-06-01T11:00:16;99771.03;;;23.65;42.14
75699;BME280;64313;51.018;13.742;2023-06-01T11:05:34;99767.72;;;23.73;41.53
75699;BME280;64313;51.018;13.742;2023-06-01T11:08:07;99775.31;;;23.82;39.01
75699;BME280;64313;51.018;13.742;2023-06-01T11:13:36;99759.44;;;23.84;39.70
75699;BME280;64313;51.018;13.742;2023-06-01T11:18:47;99755.00;;;23.93;39.96
75699;BME280;64313;51.018;13.742;2023-06-01T11:21:16;99757.69;;;23.98;39.74
75699;BME280;64313;51.018;13.742;2023-06-01T11:23:43;99750.78;;;24.06;39.50
75699;BME280;64313;51.018;13.742;2023-06-01T11:26:09;99741.50;;;24.07;39.96
75699;BME280;64313;51.018;13.742;2023-06-01T11:28:35;99744.47;;;24.10;40.00
75699;BME280;64313;51.018;13.742;2023-06-01T11:31:02;99738.13;;;24.15;41.07
75699;BME280;64313;51.018;13.742;2023-06-01T11:33:28;99741.41;;;24.17;40.93
75699;BME280;64313;51.018;13.742;2023-06-01T11:35:58;99736.16;;;24.21;40.55
75699;BME280;64313;51.018;13.742;2023-06-01T11:38:24;99730.94;;;24.24;40.41
75699;BME280;64313;51.018;13.742;2023-06-01T11:40:59;99725.97;;;24.26;40.59
75699;BME280;64313;51.018;13.742;2023-06-01T11:43:31;99719.44;;;24.27;40.42
75699;BME280;64313;51.018;13.742;2023-06-01T11:46:01;99719.38;;;24.32;40.64
75699;BME280;64313;51.018;13.742;2023-06-01T11:48:27;99723.38;;;24.40;39.13
75699;BME280;64313;51.018;13.742;2023-06-01T11:50:53;99727.00;;;24.35;39.04
75699;BME280;64313;51.018;13.742;2023-06-01T11:53:20;99721.47;;;24.40;39.16
75699;BME280;64313;51.018;13.742;2023-06-01T11:55:52;99723.03;;;24.47;38.78
75699;BME280;64313;51.018;13.742;2023-06-01T11:58:22;99716.50;;;24.48;37.50
75699;BME280;64313;51.018;13.742;2023-06-01T12:00:48;99714.28;;;24.50;36.75
75699;BME280;64313;51.018;13.742;2023-06-01T12:03:14;99721.09;;;24.52;37.56
75699;BME280;64313;51.018;13.742;2023-06-01T12:05:40;99711.78;;;24.53;36.31
75699;BME280;64313;51.018;13.742;2023-06-01T12:08:14;99705.72;;;24.56;37.73
75699;BME280;64313;51.018;13.742;2023-06-01T12:10:42;99709.22;;;24.62;35.73
75699;BME280;64313;51.018;13.742;2023-06-01T12:13:09;99704.56;;;24.63;34.23
75699;BME280;64313;51.018;13.742;2023-06-01T12:15:36;99709.72;;;24.64;35.00
75699;BME280;64313;51.018;13.742;2023-06-01T12:18:02;99700.97;;;24.67;35.33
75699;BME280;64313;51.018;13.742;2023-06-01T12:20:36;99701.97;;;24.71;35.00
75699;BME280;64313;51.018;13.742;2023-06-01T12:23:27;99701.16;;;24.71;33.76
75699;BME280;64313;51.018;13.742;2023-06-01T12:25:55;99700.56;;;24.74;33.58
75699;BME280;64313;51.018;13.742;2023-06-01T12:28:22;99695.63;;;24.76;33.74
75699;BME280;64313;51.018;13.742;2023-06-01T12:31:07;99698.59;;;24.79;35.19
75699;BME280;64313;51.018;13.742;2023-06-01T12:33:35;99690.09;;;24.81;34.43
75699;BME280;64313;51.018;13.742;2023-06-01T12:36:02;99685.75;;;24.80;34.08
75699;BME280;64313;51.018;13.742;2023-06-01T12:38:34;99694.16;;;24.83;34.74
75699;BME280;64313;51.018;13.742;2023-06-01T12:43:34;99693.00;;;24.90;34.92
75699;BME280;64313;51.018;13.742;2023-06-01T12:46:00;99683.69;;;24.91;33.95
75699;BME280;64313;51.018;13.742;2023-06-01T12:48:30;99678.22;;;24.91;32.65
75699;BME280;64313;51.018;13.742;2023-06-01T12:50:57;99687.16;;;24.96;33.45
75699;BME280;64313;51.018;13.742;2023-06-01T12:53:22;99674.28;;;24.97;34.08
75699;BME280;64313;51.018;13.742;2023-06-01T12:55:48;99675.03;;;25.02;34.51
75699;BME280;64313;51.018;13.742;2023-06-01T12:58:13;99679.66;;;25.02;34.15
75699;BME280;64313;51.018;13.742;2023-06-01T13:00:38;99674.44;;;24.87;34.43
75699;BME280;64313;51.018;13.742;2023-06-01T13:03:04;99667.09;;;24.82;34.32
75699;BME280;64313;51.018;13.742;2023-06-01T13:05:29;99678.22;;;24.91;36.29
75699;BME280;64313;51.018;13.742;2023-06-01T13:07:55;99676.59;;;24.90;34.08
75699;BME280;64313;51.018;13.742;2023-06-01T13:10:20;99671.13;;;24.90;34.22
75699;BME280;64313;51.018;13.742;2023-06-01T13:12:45;99672.66;;;24.96;34.85
75699;BME280;64313;51.018;13.742;2023-06-01T13:15:11;99667.63;;;25.03;34.68
75699;BME280;64313;51.018;13.742;2023-06-01T13:17:37;99663.78;;;25.04;34.40
75699;BME280;64313;51.018;13.742;2023-06-01T13:20:03;99661.28;;;25.08;34.26
75699;BME280;64313;51.018;13.742;2023-06-01T13:22:31;99655.22;;;25.11;35.02
75699;BME280;64313;51.018;13.742;2023-06-01T13:24:56;99657.88;;;25.16;34.86